createdAt,value
2023-03-05T00:01:24.552Z,4.86
2023-03-05T00:03:50.837Z,4.80
2023-03-05T00:06:17.124Z,4.76
2023-03-05T00:08:43.446Z,4.73
2023-03-05T00:11:09.738Z,4.70
2023-03-05T00:13:35.992Z,4.67
2023-03-05T00:16:02.301Z,4.67
2023-03-05T00:18:28.571Z,4.63
2023-03-05T00:20:54.828Z,4.68
2023-03-05T00:23:21.102Z,4.71
2023-03-05T00:25:47.393Z,4.66
2023-03-05T00:28:13.673Z,4.62
2023-03-05T00:30:39.950Z,4.55
2023-03-05T00:33:06.235Z,4.55
2023-03-05T00:35:34.106Z,4.56
2023-03-05T00:38:01.347Z,4.53
2023-03-05T00:40:27.666Z,4.48
2023-03-05T00:42:53.936Z,4.42
2023-03-05T00:45:20.226Z,4.44
2023-03-05T00:47:46.488Z,4.45
2023-03-05T00:50:12.810Z,4.47
2023-03-05T00:52:39.090Z,4.56
2023-03-05T00:55:05.360Z,4.65
2023-03-05T00:57:31.639Z,4.71
2023-03-05T00:59:57.908Z,4.69
2023-03-05T01:02:24.151Z,4.74
2023-03-05T01:04:50.505Z,4.77
2023-03-05T01:07:16.828Z,4.69
2023-03-05T01:09:43.109Z,4.74
2023-03-05T01:12:09.408Z,4.67
2023-03-05T01:14:35.681Z,4.60
2023-03-05T01:17:01.983Z,4.58
2023-03-05T01:19:28.265Z,4.53
2023-03-05T01:21:54.795Z,4.47
2023-03-05T01:24:21.144Z,4.45
2023-03-05T01:26:47.416Z,4.42
2023-03-05T01:29:13.689Z,4.39
2023-03-05T01:31:40.002Z,4.31
2023-03-05T01:34:06.304Z,4.19
2023-03-05T01:36:32.621Z,4.10
2023-03-05T01:38:58.905Z,4.12
2023-03-05T01:41:25.184Z,4.13
2023-03-05T01:43:51.469Z,4.15
2023-03-05T01:46:17.734Z,4.02
2023-03-05T01:48:44.037Z,3.83
2023-03-05T01:51:10.337Z,3.76
2023-03-05T01:53:36.627Z,3.65
2023-03-05T01:56:02.888Z,3.43
2023-03-05T01:58:29.178Z,3.48
2023-03-05T02:00:55.488Z,3.46
2023-03-05T02:03:21.825Z,3.51
2023-03-05T02:05:48.106Z,3.57
2023-03-05T02:08:14.379Z,3.66
2023-03-05T02:10:40.650Z,3.53
2023-03-05T02:13:06.941Z,3.45
2023-03-05T02:15:33.219Z,3.46
2023-03-05T02:17:59.549Z,3.40
2023-03-05T02:20:25.845Z,3.32
2023-03-05T02:22:52.161Z,3.31
2023-03-05T02:25:18.436Z,3.21
2023-03-05T02:27:44.715Z,3.29
2023-03-05T02:30:10.977Z,3.33
2023-03-05T02:32:37.300Z,3.37
2023-03-05T02:35:03.589Z,3.39
2023-03-05T02:37:29.862Z,3.33
2023-03-05T02:39:56.109Z,3.24
2023-03-05T02:42:22.401Z,3.16
2023-03-05T02:44:48.701Z,3.06
2023-03-05T02:47:15.003Z,3.08
2023-03-05T02:49:41.264Z,3.09
2023-03-05T02:52:07.545Z,2.96
2023-03-05T02:54:33.858Z,2.84
2023-03-05T02:57:00.130Z,2.76
2023-03-05T02:59:26.411Z,2.88
2023-03-05T03:01:52.678Z,2.84
2023-03-05T03:04:18.945Z,2.81
2023-03-05T03:06:45.227Z,2.85
2023-03-05T03:09:11.502Z,2.88
2023-03-05T03:11:37.770Z,2.86
2023-03-05T03:14:04.063Z,2.71
2023-03-05T03:16:30.382Z,2.62
2023-03-05T03:18:56.679Z,2.64
2023-03-05T03:21:22.945Z,2.58
2023-03-05T03:23:49.199Z,2.49
2023-03-05T03:26:15.454Z,2.45
2023-03-05T03:28:41.705Z,2.50
2023-03-05T03:31:08.107Z,2.47
2023-03-05T03:33:34.417Z,2.38
2023-03-05T03:36:00.766Z,2.31
2023-03-05T03:38:27.097Z,2.29
2023-03-05T03:40:53.365Z,2.24
2023-03-05T03:43:19.654Z,2.17
2023-03-05T03:45:46.039Z,2.00
2023-03-05T03:48:12.418Z,2.05
2023-03-05T03:50:38.703Z,2.06
2023-03-05T03:53:04.989Z,2.15
2023-03-05T03:55:31.295Z,2.25
2023-03-05T03:57:57.551Z,2.33
2023-03-05T04:00:23.805Z,2.40
2023-03-05T04:02:50.126Z,2.45
2023-03-05T04:05:16.437Z,2.55
2023-03-05T04:07:42.729Z,2.63
2023-03-05T04:10:09.028Z,2.73
2023-03-05T04:12:35.306Z,2.78
2023-03-05T04:15:01.585Z,2.64
2023-03-05T04:17:27.875Z,2.71
2023-03-05T04:19:54.192Z,2.77
2023-03-05T04:22:20.525Z,2.78
2023-03-05T04:24:46.823Z,2.82
2023-03-05T04:27:13.081Z,2.84
2023-03-05T04:29:39.365Z,2.88
2023-03-05T04:32:05.691Z,2.83
2023-03-05T04:34:32.050Z,2.85
2023-03-05T04:36:58.349Z,2.78
2023-03-05T04:39:24.608Z,2.84
2023-03-05T04:41:50.856Z,2.69
2023-03-05T04:44:17.117Z,2.62
2023-03-05T04:46:43.432Z,2.59
2023-03-05T04:49:09.734Z,2.57
2023-03-05T04:51:36.020Z,2.50
2023-03-05T04:54:02.284Z,2.40
2023-03-05T04:56:28.578Z,2.48
2023-03-05T04:58:55.917Z,2.41
2023-03-05T05:01:22.172Z,2.45
2023-03-05T05:03:48.423Z,2.41
2023-03-05T05:06:14.697Z,2.47
2023-03-05T05:08:40.963Z,2.48
2023-03-05T05:11:07.229Z,2.51
2023-03-05T05:13:33.604Z,2.43
2023-03-05T05:15:59.902Z,2.41
2023-03-05T05:18:26.199Z,2.39
2023-03-05T05:20:52.479Z,2.36
2023-03-05T05:23:18.768Z,2.35
2023-03-05T05:25:45.038Z,2.33
2023-03-05T05:28:11.327Z,2.22
2023-03-05T05:30:37.609Z,2.16
2023-03-05T05:33:03.896Z,2.14
2023-03-05T05:35:30.213Z,2.02
2023-03-05T05:37:56.504Z,1.97
2023-03-05T05:40:22.796Z,1.95
2023-03-05T05:42:49.077Z,1.92
2023-03-05T05:45:15.388Z,1.82
2023-03-05T05:47:41.659Z,1.82
2023-03-05T05:50:07.920Z,1.82
2023-03-05T05:52:34.197Z,1.69
2023-03-05T05:55:00.481Z,1.75
2023-03-05T05:57:26.819Z,1.72
2023-03-05T05:59:53.089Z,1.74
2023-03-05T06:02:19.453Z,1.81
2023-03-05T06:04:45.722Z,1.84
2023-03-05T06:07:12.029Z,1.90
2023-03-05T06:09:38.333Z,1.94
2023-03-05T06:12:04.614Z,1.87
2023-03-05T06:14:30.913Z,1.86
2023-03-05T06:16:57.199Z,1.85
2023-03-05T06:19:23.492Z,1.88
2023-03-05T06:21:49.783Z,1.92
2023-03-05T06:24:16.047Z,1.93
2023-03-05T06:26:42.349Z,1.96
2023-03-05T06:29:08.605Z,1.95
2023-03-05T06:31:37.144Z,1.88
2023-03-05T06:34:03.722Z,1.86
2023-03-05T06:36:30.058Z,1.76
2023-03-05T06:38:56.326Z,1.72
2023-03-05T06:41:22.626Z,1.70
2023-03-05T06:43:48.877Z,1.67
2023-03-05T06:46:15.171Z,1.72
2023-03-05T06:48:41.517Z,1.73
2023-03-05T06:51:07.789Z,1.67
2023-03-05T06:53:34.086Z,1.74
2023-03-05T06:56:00.410Z,1.65
2023-03-05T06:58:26.721Z,1.64
2023-03-05T07:00:53.091Z,1.65
2023-03-05T07:03:19.365Z,1.65
2023-03-05T07:05:45.661Z,1.71
2023-03-05T07:08:11.939Z,1.83
2023-03-05T07:10:38.211Z,1.81
2023-03-05T07:13:04.501Z,1.88
2023-03-05T07:15:30.870Z,1.92
2023-03-05T07:17:57.137Z,1.96
2023-03-05T07:20:23.408Z,1.92
2023-03-05T07:22:49.732Z,1.97
2023-03-05T07:25:16.026Z,1.94
2023-03-05T07:27:42.322Z,1.95
2023-03-05T07:30:08.590Z,1.98
2023-03-05T07:32:34.927Z,2.01
2023-03-05T07:35:01.254Z,2.00
2023-03-05T07:37:27.549Z,1.98
2023-03-05T07:39:53.810Z,1.99
2023-03-05T07:42:20.169Z,1.94
2023-03-05T07:44:46.518Z,1.94
2023-03-05T07:47:12.786Z,2.02
2023-03-05T07:49:39.049Z,2.04
2023-03-05T07:52:05.323Z,2.00
2023-03-05T07:54:31.609Z,2.14
2023-03-05T07:56:57.892Z,2.12
2023-03-05T07:59:24.167Z,2.21
2023-03-05T08:01:50.436Z,2.23
2023-03-05T08:04:16.751Z,2.18
2023-03-05T08:06:43.076Z,2.20
2023-03-05T08:09:09.461Z,2.23
2023-03-05T08:11:35.732Z,2.26
2023-03-05T08:14:02.016Z,2.22
2023-03-05T08:16:28.335Z,2.30
2023-03-05T08:18:54.622Z,2.33
2023-03-05T08:21:20.944Z,2.39
2023-03-05T08:23:47.212Z,2.49
2023-03-05T08:26:13.506Z,2.57
2023-03-05T08:28:39.778Z,2.70
2023-03-05T08:31:06.094Z,2.79
2023-03-05T08:33:33.818Z,2.86
2023-03-05T08:36:01.587Z,2.93
2023-03-05T08:38:27.900Z,2.81
2023-03-05T08:40:54.167Z,2.99
2023-03-05T08:43:20.425Z,3.06
2023-03-05T08:45:46.702Z,3.03
2023-03-05T08:48:12.970Z,3.06
2023-03-05T08:50:39.243Z,3.01
2023-03-05T08:53:05.516Z,3.07
2023-03-05T08:55:31.822Z,3.08
2023-03-05T08:57:58.161Z,3.11
2023-03-05T09:00:24.426Z,3.15
2023-03-05T09:02:50.731Z,3.19
2023-03-05T09:05:17.033Z,3.28
2023-03-05T09:07:43.351Z,3.31
2023-03-05T09:10:09.607Z,3.38
2023-03-05T09:12:35.870Z,3.44
2023-03-05T09:15:02.138Z,3.50
2023-03-05T09:17:28.453Z,3.53
2023-03-05T09:19:54.702Z,3.56
2023-03-05T09:22:20.960Z,3.65
2023-03-05T09:24:47.221Z,3.64
2023-03-05T09:27:13.475Z,3.82
2023-03-05T09:29:41.893Z,3.92
2023-03-05T09:32:09.241Z,4.00
2023-03-05T09:34:35.626Z,4.07
2023-03-05T09:37:01.900Z,4.05
2023-03-05T09:39:28.178Z,4.03
2023-03-05T09:41:54.463Z,4.25
2023-03-05T09:44:20.737Z,4.27
2023-03-05T09:46:47.025Z,4.31
2023-03-05T09:49:13.305Z,4.32
2023-03-05T09:51:39.592Z,4.34
2023-03-05T09:54:05.937Z,4.48
2023-03-05T09:56:32.212Z,4.58
2023-03-05T09:58:58.499Z,4.57
2023-03-05T10:01:24.751Z,4.63
2023-03-05T10:03:51.080Z,4.60
2023-03-05T10:06:17.379Z,4.66
2023-03-05T10:08:43.639Z,4.72
2023-03-05T10:11:09.932Z,4.79
2023-03-05T10:13:36.188Z,4.79
2023-03-05T10:16:02.439Z,4.79
2023-03-05T10:18:28.738Z,4.90
2023-03-05T10:20:55.043Z,4.93
2023-03-05T10:23:21.366Z,4.88
2023-03-05T10:25:47.658Z,4.84
2023-03-05T10:28:13.926Z,4.78
2023-03-05T10:30:40.216Z,4.79
2023-03-05T10:33:06.559Z,4.74
2023-03-05T10:35:32.838Z,4.90
2023-03-05T10:37:59.113Z,4.93
2023-03-05T10:40:25.377Z,4.97
2023-03-05T10:42:51.630Z,4.93
2023-03-05T10:45:17.895Z,5.01
2023-03-05T10:47:44.166Z,5.06
2023-03-05T10:50:10.435Z,5.13
2023-03-05T10:52:36.731Z,5.20
2023-03-05T10:55:02.990Z,5.16
2023-03-05T10:57:29.276Z,5.19
2023-03-05T10:59:55.525Z,5.29
2023-03-05T11:02:21.812Z,5.39
2023-03-05T11:04:48.164Z,5.42
2023-03-05T11:07:14.504Z,5.48
2023-03-05T11:09:40.856Z,5.57
2023-03-05T11:12:07.106Z,5.64
2023-03-05T11:14:33.426Z,5.63
2023-03-05T11:16:59.766Z,5.63
2023-03-05T11:19:26.074Z,5.63
2023-03-05T11:21:52.350Z,5.70
2023-03-05T11:24:18.604Z,5.71
2023-03-05T11:26:44.876Z,5.78
2023-03-05T11:29:11.167Z,5.94
2023-03-05T11:31:37.437Z,5.94
2023-03-05T11:34:03.701Z,6.05
2023-03-05T11:36:30.022Z,6.06
2023-03-05T11:38:56.324Z,6.17
2023-03-05T11:41:22.596Z,6.16
2023-03-05T11:43:48.883Z,6.29
2023-03-05T11:46:15.187Z,6.23
2023-03-05T11:48:41.498Z,6.37
2023-03-05T11:51:07.784Z,6.38
2023-03-05T11:53:34.049Z,6.37
2023-03-05T11:56:00.368Z,6.35
2023-03-05T11:58:26.680Z,6.31
2023-03-05T12:00:52.983Z,6.36
2023-03-05T12:03:19.261Z,6.39
2023-03-05T12:05:45.523Z,6.49
2023-03-05T12:08:11.785Z,6.54
2023-03-05T12:10:38.081Z,6.55
2023-03-05T12:13:04.359Z,6.69
2023-03-05T12:15:30.675Z,6.83
2023-03-05T12:17:56.962Z,7.03
2023-03-05T12:20:23.281Z,7.05
2023-03-05T12:22:49.609Z,7.10
2023-03-05T12:25:15.899Z,7.02
2023-03-05T12:27:42.522Z,7.31
2023-03-05T12:30:08.823Z,7.34
2023-03-05T12:32:35.211Z,7.21
2023-03-05T12:35:01.572Z,7.25
2023-03-05T12:37:27.859Z,7.39
2023-03-05T12:39:54.146Z,7.42
2023-03-05T12:42:20.419Z,7.53
2023-03-05T12:44:46.678Z,7.58
2023-03-05T12:47:12.958Z,7.65
2023-03-05T12:49:39.288Z,7.60
2023-03-05T12:52:05.605Z,7.74
2023-03-05T12:54:31.887Z,7.85
2023-03-05T12:56:58.201Z,7.99
2023-03-05T12:59:24.472Z,7.89
2023-03-05T13:01:50.735Z,8.14
2023-03-05T13:04:17.042Z,8.27
2023-03-05T13:06:43.322Z,8.15
2023-03-05T13:09:09.689Z,8.35
2023-03-05T13:11:35.974Z,8.50
2023-03-05T13:14:02.289Z,8.58
2023-03-05T13:16:28.582Z,8.71
2023-03-05T13:18:54.878Z,8.76
2023-03-05T13:21:21.184Z,8.80
2023-03-05T13:23:47.497Z,8.71
2023-03-05T13:26:13.773Z,8.77
2023-03-05T13:28:40.094Z,8.82
2023-03-05T13:31:06.378Z,8.74
2023-03-05T13:33:32.662Z,8.68
2023-03-05T13:35:59.015Z,8.83
2023-03-05T13:38:25.326Z,8.89
2023-03-05T13:40:51.617Z,8.89
2023-03-05T13:43:18.033Z,9.08
2023-03-05T13:45:44.332Z,9.20
2023-03-05T13:48:10.706Z,9.30
2023-03-05T13:50:36.992Z,9.31
2023-03-05T13:53:03.264Z,9.35
2023-03-05T13:55:29.578Z,9.50
2023-03-05T13:57:55.852Z,9.47
2023-03-05T14:00:22.140Z,9.50
2023-03-05T14:02:48.437Z,9.58
2023-03-05T14:05:14.830Z,9.67
2023-03-05T14:07:41.116Z,9.87
2023-03-05T14:10:07.376Z,9.57
2023-03-05T14:12:33.650Z,9.81
2023-03-05T14:15:00.026Z,9.69
2023-03-05T14:17:26.281Z,9.97
2023-03-05T14:19:52.562Z,10.06
2023-03-05T14:22:18.822Z,10.20
2023-03-05T14:24:45.096Z,10.12
2023-03-05T14:27:11.360Z,10.27
2023-03-05T14:29:37.627Z,10.33
2023-03-05T14:32:03.926Z,10.44
2023-03-05T14:34:30.215Z,10.53
2023-03-05T14:36:56.518Z,10.66
2023-03-05T14:39:22.823Z,10.77
2023-03-05T14:41:49.094Z,10.84
2023-03-05T14:44:15.417Z,10.86
2023-03-05T14:46:41.678Z,10.88
2023-03-05T14:49:07.989Z,10.95
2023-03-05T14:51:34.265Z,10.98
2023-03-05T14:54:00.550Z,10.99
2023-03-05T14:56:26.860Z,10.97
2023-03-05T14:58:53.183Z,10.94
2023-03-05T15:01:19.525Z,10.98
2023-03-05T15:03:45.792Z,11.03
2023-03-05T15:06:12.090Z,11.01
2023-03-05T15:08:38.403Z,11.04
2023-03-05T15:11:04.700Z,11.05
2023-03-05T15:13:30.959Z,11.02
2023-03-05T15:15:57.354Z,11.02
2023-03-05T15:18:23.659Z,11.05
2023-03-05T15:20:49.930Z,11.16
2023-03-05T15:23:16.275Z,11.23
2023-03-05T15:25:42.546Z,11.22
2023-03-05T15:28:08.832Z,11.20
2023-03-05T15:30:35.176Z,11.34
2023-03-05T15:33:01.454Z,11.32
2023-03-05T15:35:27.815Z,11.33
2023-03-05T15:37:54.122Z,11.27
2023-03-05T15:40:20.438Z,11.25
2023-03-05T15:42:46.729Z,11.22
2023-03-05T15:45:12.987Z,11.20
2023-03-05T15:47:39.270Z,11.20
2023-03-05T15:50:05.605Z,11.22
2023-03-05T15:52:31.890Z,11.18
2023-03-05T15:54:58.171Z,11.18
2023-03-05T15:57:24.549Z,11.21
2023-03-05T15:59:50.797Z,11.15
2023-03-05T16:02:17.053Z,11.14
2023-03-05T16:04:43.379Z,11.11
2023-03-05T16:07:09.653Z,11.08
2023-03-05T16:09:35.931Z,11.04
2023-03-05T16:12:02.203Z,11.00
2023-03-05T16:14:28.541Z,10.93
2023-03-05T16:16:54.854Z,10.92
2023-03-05T16:19:21.153Z,10.88
2023-03-05T16:21:47.560Z,10.84
2023-03-05T16:24:13.836Z,10.83
2023-03-05T16:26:40.116Z,10.76
2023-03-05T16:29:06.465Z,10.66
2023-03-05T16:31:32.793Z,10.60
2023-03-05T16:33:59.097Z,10.51
2023-03-05T16:36:25.428Z,10.39
2023-03-05T16:38:54.494Z,10.31
2023-03-05T16:41:22.545Z,10.24
2023-03-05T16:43:49.501Z,10.16
2023-03-05T16:46:15.842Z,10.10
2023-03-05T16:48:42.142Z,10.02
2023-03-05T16:51:08.465Z,9.95
2023-03-05T16:53:34.735Z,9.86
2023-03-05T16:56:03.115Z,9.78
2023-03-05T16:58:30.087Z,9.70
2023-03-05T17:00:56.393Z,9.67
2023-03-05T17:03:22.816Z,9.59
2023-03-05T17:05:49.098Z,9.52
2023-03-05T17:08:15.428Z,9.45
2023-03-05T17:10:41.720Z,9.42
2023-03-05T17:13:08.004Z,9.29
2023-03-05T17:15:34.333Z,9.18
2023-03-05T17:18:00.621Z,9.08
2023-03-05T17:20:26.892Z,8.93
2023-03-05T17:22:53.221Z,8.83
2023-03-05T17:25:19.501Z,8.74
2023-03-05T17:27:45.848Z,8.66
2023-03-05T17:30:12.137Z,8.58
2023-03-05T17:32:38.473Z,8.50
2023-03-05T17:35:05.658Z,8.36
2023-03-05T17:37:31.974Z,8.28
2023-03-05T17:39:58.240Z,8.22
2023-03-05T17:42:24.529Z,8.19
2023-03-05T17:44:50.799Z,8.16
2023-03-05T17:47:17.082Z,8.11
2023-03-05T17:49:43.356Z,8.11
2023-03-05T17:52:09.674Z,8.11
2023-03-05T17:54:35.989Z,8.05
2023-03-05T17:57:02.273Z,7.97
2023-03-05T17:59:28.552Z,7.94
2023-03-05T18:01:54.849Z,7.89
2023-03-05T18:04:21.170Z,7.90
2023-03-05T18:06:47.495Z,7.84
2023-03-05T18:09:13.762Z,7.82
2023-03-05T18:11:40.060Z,7.79
2023-03-05T18:14:06.343Z,7.74
2023-03-05T18:16:32.656Z,7.73
2023-03-05T18:18:58.936Z,7.68
2023-03-05T18:21:25.188Z,7.58
2023-03-05T18:23:51.442Z,7.46
2023-03-05T18:26:17.868Z,7.36
2023-03-05T18:28:44.136Z,7.26
2023-03-05T18:31:10.474Z,7.23
2023-03-05T18:33:36.771Z,7.24
2023-03-05T18:36:03.047Z,7.20
2023-03-05T18:38:29.333Z,7.14
2023-03-05T18:40:55.592Z,7.06
2023-03-05T18:43:21.865Z,7.00
2023-03-05T18:45:48.180Z,6.98
2023-03-05T18:48:14.581Z,6.88
2023-03-05T18:50:40.846Z,6.82
2023-03-05T18:53:07.133Z,6.77
2023-03-05T18:55:33.442Z,6.77
2023-03-05T18:57:59.725Z,6.76
2023-03-05T19:00:26.042Z,6.81
2023-03-05T19:02:52.322Z,6.84
2023-03-05T19:05:18.644Z,6.82
2023-03-05T19:07:45.010Z,6.86
2023-03-05T19:10:11.347Z,6.85
2023-03-05T19:12:37.678Z,6.88
2023-03-05T19:15:03.969Z,6.87
2023-03-05T19:17:30.285Z,6.84
2023-03-05T19:19:56.546Z,6.76
2023-03-05T19:22:22.808Z,6.73
2023-03-05T19:24:49.074Z,6.68
2023-03-05T19:27:15.355Z,6.66
2023-03-05T19:29:41.690Z,6.64
2023-03-05T19:32:08.049Z,6.64
2023-03-05T19:34:34.353Z,6.59
2023-03-05T19:37:00.684Z,6.58
2023-03-05T19:39:26.942Z,6.54
2023-03-05T19:41:53.225Z,6.56
2023-03-05T19:44:19.512Z,6.57
2023-03-05T19:46:45.802Z,6.56
2023-03-05T19:49:12.068Z,6.52
2023-03-05T19:51:38.349Z,6.50
2023-03-05T19:54:04.625Z,6.41
2023-03-05T19:56:30.943Z,6.34
2023-03-05T19:58:57.220Z,6.33
2023-03-05T20:01:23.593Z,6.28
2023-03-05T20:03:50.023Z,6.24
2023-03-05T20:06:16.384Z,6.20
2023-03-05T20:08:42.669Z,6.14
2023-03-05T20:11:08.948Z,6.08
2023-03-05T20:13:35.288Z,6.02
2023-03-05T20:16:01.586Z,5.92
2023-03-05T20:18:27.881Z,5.88
2023-03-05T20:20:54.215Z,5.79
2023-03-05T20:23:20.488Z,5.66
2023-03-05T20:25:46.789Z,5.59
2023-03-05T20:28:13.074Z,5.50
2023-03-05T20:30:39.382Z,5.46
2023-03-05T20:33:05.661Z,5.46
2023-03-05T20:35:31.979Z,5.42
2023-03-05T20:37:58.317Z,5.34
2023-03-05T20:40:24.622Z,5.35
2023-03-05T20:42:50.984Z,5.32
2023-03-05T20:45:17.649Z,5.29
2023-03-05T20:47:43.913Z,5.21
2023-03-05T20:50:10.220Z,5.12
2023-03-05T20:52:36.486Z,5.03
2023-03-05T20:55:02.794Z,4.93
2023-03-05T20:57:29.068Z,4.91
2023-03-05T20:59:55.318Z,4.89
2023-03-05T21:02:21.691Z,4.91
2023-03-05T21:04:48.244Z,4.88
2023-03-05T21:07:14.532Z,4.87
2023-03-05T21:09:40.827Z,4.78
2023-03-05T21:12:07.120Z,4.81
2023-03-05T21:14:33.445Z,4.81
2023-03-05T21:16:59.772Z,4.83
2023-03-05T21:19:26.018Z,4.80
2023-03-05T21:21:52.319Z,4.79
2023-03-05T21:24:18.585Z,4.77
2023-03-05T21:26:44.854Z,4.75
2023-03-05T21:29:11.121Z,4.73
2023-03-05T21:31:37.534Z,4.70
2023-03-05T21:34:03.872Z,4.71
2023-03-05T21:36:30.183Z,4.71
2023-03-05T21:38:56.487Z,4.69
2023-03-05T21:41:22.809Z,4.67
2023-03-05T21:43:49.064Z,4.66
2023-03-05T21:46:15.423Z,4.66
2023-03-05T21:48:41.785Z,4.64
2023-03-05T21:51:08.070Z,4.66
2023-03-05T21:53:34.378Z,4.67
2023-03-05T21:56:00.648Z,4.66
2023-03-05T21:58:26.909Z,4.59
2023-03-05T22:00:53.227Z,4.51
2023-03-05T22:03:19.522Z,4.41
2023-03-05T22:05:45.810Z,4.34
2023-03-05T22:08:12.073Z,4.24
2023-03-05T22:10:38.345Z,4.16
2023-03-05T22:13:04.592Z,4.12
2023-03-05T22:15:30.904Z,4.05
2023-03-05T22:17:57.208Z,4.04
2023-03-05T22:20:23.463Z,4.01
2023-03-05T22:22:49.722Z,3.90
2023-03-05T22:25:16.015Z,3.87
2023-03-05T22:27:42.286Z,3.80
2023-03-05T22:30:08.556Z,3.75
2023-03-05T22:32:34.884Z,3.70
2023-03-05T22:35:01.221Z,3.64
2023-03-05T22:37:27.492Z,3.53
2023-03-05T22:39:53.770Z,3.50
2023-03-05T22:42:20.060Z,3.45
2023-03-05T22:44:46.352Z,3.39
2023-03-05T22:47:12.690Z,3.38
2023-03-05T22:49:38.994Z,3.31
2023-03-05T22:52:05.259Z,3.25
2023-03-05T22:54:31.544Z,3.17
2023-03-05T22:56:57.808Z,3.11
2023-03-05T22:59:24.146Z,3.10
2023-03-05T23:01:50.433Z,3.12
2023-03-05T23:04:16.771Z,3.09
2023-03-05T23:06:43.056Z,3.08
2023-03-05T23:09:09.336Z,3.06
2023-03-05T23:11:35.605Z,3.01
2023-03-05T23:14:01.880Z,2.99
2023-03-05T23:16:28.157Z,3.00
2023-03-05T23:18:54.436Z,2.99
2023-03-05T23:21:20.687Z,3.03
2023-03-05T23:23:46.930Z,3.02
2023-03-05T23:26:13.197Z,3.02
2023-03-05T23:28:39.456Z,3.01
2023-03-05T23:31:05.775Z,3.00
2023-03-05T23:33:32.059Z,2.96
2023-03-05T23:35:58.381Z,2.87
2023-03-05T23:38:24.671Z,2.81
2023-03-05T23:40:50.951Z,2.73
2023-03-05T23:43:17.220Z,2.68
2023-03-05T23:45:43.489Z,2.67
2023-03-05T23:48:09.745Z,2.67
2023-03-05T23:50:36.033Z,2.70
2023-03-05T23:53:02.488Z,2.68
2023-03-05T23:55:28.756Z,2.61
2023-03-05T23:57:55.069Z,2.60
